Stacja Pogody Warszawa Praga Północ 


Stacja Pogody
Warszawa Praga Północ

 Szerokość N 52° 15 '43"    Długość E 21° 01' 22"    Wysokość 89 m n.p.m.


Wschód Słońca 04:20 Górowanie Słońca 12:40 Zachód Słońca 20:59 rak
Data juliańska 2457208.759 Odległość Słońca 152099307 km Średn. kątowa Słońca 0,315°
Wschód Księżyca 22:10 Zachód Księżyca 07:19 Wiek Księżyca 17 dni Moon
Widoczność Księżyca 94,11% Odległość Księżyca 368806 km Średn. kątowa Księżyca 0,324°
Dzień krótszy od najdłuższego o: 00:08 Długość dnia 16:39 Imieniny Odona, Malwiny, Elżbiety




Warunki pogodowe uaktualnione 04-07-2015, o godzinie 06:12
Temperatura 18.7 °C ↑ Temperatura odczuwalna 18.4 °C
Punkt rosy 14.4 °C Humidex 22.2 °C
Deszcz na godzinę 0.0 mm Wilgotność względna 76% →
Prędkość wiatru (średnia) 5 km/h → Prędkość wiatru (podmuch) 9 km/h
Kierunek wiatru SSE Skala Beaufort'a 2
Przepływ wiatru w ciągu ostatniej doby 98 km
Ciśnienie względne  1026 hPa Trend ciśnienia powolny spadek
Ciśnienie bezwzględne  1013 hPa Podstawa chmur 617.2 m
METAR EPWA 040400Z 15003KT CAVOK 17/12 Q1026 NOSIG
TAF TAF EPWA 032330Z 0400/0424 14005KT CAVOK





 a

Valid XHTML 1.0 Transitional Valid CSS!